»·PEaware :: N62AW L88-KSBP

N62AW :: L88-KSBP

FLIGHT INFORMATION

Flight Status: Arrived
Operator: Privately registered:
United States
More flights under this callsign
Pilot: Curd B. (25529)
Aircraft: CESSNA 172 SKYHAWK
(C172)
More flights by this aircraft type
Origin: L88 New Cuyama
United States
Destination: KSBP San Luis Co Regl
United States
More flights between these airports :: More routes between these airports
Route: NA
File this flight plan on PilotEdge
Remarks: na
Altitude:
(Current/Filed)
6,500ft
Speed:
(Current/Filed)
120kts
Departed: 04-Nov-19 07:01 PM
Arrived: 04-Nov-19 07:50 PM
Distance/Time
Traveled:
50nm/0:48
Distance/Time
To Go:
Arrived

Flight Plot

Page will automatically refresh every two minutes.


Map Options




Map Legend


Flown Route
Filed Route
Departure Airport
Arrival Airport
Navaid (VOR, NDB)
Fix

Horizontal Profiles

Position Reports

Time Latitude Longitude Heading Altitude Ground
Speed
04-Nov-19 18:50 34.942853 -119.690285 204 2156ft 0kts
04-Nov-19 18:51 34.942853 -119.690285 204 2156ft 0kts
04-Nov-19 18:52 34.942853 -119.690285 204 2156ft 0kts
04-Nov-19 18:53 34.942853 -119.690285 204 2156ft 0kts
04-Nov-19 18:54 34.942853 -119.690285 204 2156ft 0kts
04-Nov-19 18:55 34.942853 -119.690285 204 2156ft 0kts
04-Nov-19 18:56 34.942853 -119.690285 204 2156ft 0kts
04-Nov-19 18:57 34.942849 -119.690291 232 2156ft 0kts
04-Nov-19 18:58 34.942544 -119.691238 211 2155ft 0kts
04-Nov-19 18:59 34.941928 -119.690406 117 2158ft 21kts
04-Nov-19 19:00 34.935150 -119.670000 114 2565ft 72kts
04-Nov-19 19:01 34.933473 -119.646509 29 2967ft 90kts
04-Nov-19 19:02 34.947528 -119.674539 273 3274ft 96kts
04-Nov-19 19:03 34.948652 -119.706031 271 3868ft 88kts
04-Nov-19 19:04 34.949572 -119.734309 272 4452ft 77kts
04-Nov-19 19:05 34.949624 -119.757948 247 4991ft 55kts
04-Nov-19 19:06 34.939588 -119.776393 271 5243ft 75kts
04-Nov-19 19:07 34.939588 -119.776393 271 5243ft 75kts
04-Nov-19 19:08 34.939588 -119.776393 271 5243ft 75kts
04-Nov-19 19:09 34.939588 -119.776393 271 5243ft 75kts
04-Nov-19 19:10 34.939588 -119.776393 271 5243ft 75kts
04-Nov-19 19:11 34.939588 -119.776393 271 5243ft 75kts
04-Nov-19 19:12 34.939588 -119.776393 271 5243ft 75kts
04-Nov-19 19:13 34.939588 -119.776393 271 5243ft 75kts
04-Nov-19 19:14 34.939949 -119.788014 272 5512ft 63kts
04-Nov-19 19:15 34.938238 -119.814870 271 5616ft 101kts
04-Nov-19 19:16 34.939158 -119.853744 271 5637ft 122kts
04-Nov-19 19:17 34.940215 -119.896151 271 5641ft 125kts
04-Nov-19 19:18 34.941330 -119.939240 271 5641ft 126kts
04-Nov-19 19:19 34.955064 -119.975166 325 5633ft 126kts
04-Nov-19 19:20 34.984328 -119.999410 325 5633ft 126kts
04-Nov-19 19:21 35.012730 -120.022893 325 5842ft 112kts
04-Nov-19 19:22 35.039492 -120.045034 325 5935ft 122kts
04-Nov-19 19:23 35.063126 -120.074734 296 5960ft 126kts
04-Nov-19 19:24 35.076087 -120.113351 290 5955ft 110kts
04-Nov-19 19:25 35.086855 -120.148049 290 5960ft 111kts
04-Nov-19 19:26 35.098026 -120.184128 290 5958ft 112kts
04-Nov-19 19:27 35.108847 -120.219120 290 5959ft 108kts
04-Nov-19 19:28 35.119506 -120.253645 290 5913ft 112kts
04-Nov-19 19:29 35.131445 -120.292282 290 5422ft 123kts
04-Nov-19 19:30 35.143582 -120.331679 290 4920ft 123kts
04-Nov-19 19:31 35.155712 -120.371111 290 4415ft 121kts
04-Nov-19 19:32 35.167258 -120.408708 290 3908ft 115kts
04-Nov-19 19:33 35.178527 -120.445451 290 3406ft 114kts
04-Nov-19 19:34 35.189763 -120.482110 290 2902ft 114kts
04-Nov-19 19:35 35.200891 -120.518494 290 2402ft 114kts
04-Nov-19 19:36 35.212071 -120.555060 290 1898ft 113kts
04-Nov-19 19:37 35.225897 -120.589331 307 1495ft 106kts
04-Nov-19 19:38 35.244743 -120.613727 316 1555ft 92kts
04-Nov-19 19:39 35.262889 -120.639651 311 1432ft 99kts
04-Nov-19 19:40 35.284768 -120.664647 312 1327ft 115kts
04-Nov-19 19:41 35.305072 -120.692532 312 1551ft 108kts
04-Nov-19 19:42 35.301244 -120.715896 184 1444ft 116kts
04-Nov-19 19:43 35.268929 -120.728549 171 1030ft 127kts
04-Nov-19 19:44 35.249581 -120.700830 126 1287ft 100kts
04-Nov-19 19:45 35.229858 -120.675150 140 1453ft 107kts
04-Nov-19 19:46 35.209047 -120.649762 102 1153ft 123kts
04-Nov-19 19:47 35.209760 -120.623296 8 959ft 91kts
04-Nov-19 19:48 35.228607 -120.625707 295 437ft 83kts
04-Nov-19 19:49 35.235396 -120.636677 9 216ft 0kts

Navigation Log

Ident Type
Flight plan parsing failed, navigation log unavailable